createdAt,value
2022-09-24T00:00:52.543Z,3.17
2022-09-24T00:01:54.439Z,3.22
2022-09-24T00:02:56.518Z,3.58
2022-09-24T00:04:01.642Z,3.67
2022-09-24T00:05:03.535Z,3.63
2022-09-24T00:06:06.777Z,3.42
2022-09-24T00:07:08.492Z,3.15
2022-09-24T00:08:10.185Z,3.17
2022-09-24T00:09:14.065Z,3.17
2022-09-24T00:10:15.778Z,3.50
2022-09-24T00:11:21.668Z,3.20
2022-09-24T00:12:23.416Z,3.60
2022-09-24T00:13:25.076Z,3.13
2022-09-24T00:14:26.770Z,2.75
2022-09-24T00:15:28.551Z,3.00
2022-09-24T00:16:33.073Z,3.42
2022-09-24T00:17:34.789Z,3.45
2022-09-24T00:18:36.866Z,2.90
2022-09-24T00:19:38.662Z,3.50
2022-09-24T00:20:41.608Z,3.40
2022-09-24T00:21:44.333Z,3.15
2022-09-24T00:22:46.009Z,3.10
2022-09-24T00:23:56.614Z,3.42
2022-09-24T00:25:16.898Z,3.58
2022-09-24T00:26:38.236Z,3.45
2022-09-24T00:27:40.020Z,3.13
2022-09-24T00:28:41.881Z,3.10
2022-09-24T00:29:43.538Z,3.20
2022-09-24T00:30:45.361Z,3.20
2022-09-24T00:31:48.680Z,3.30
2022-09-24T00:32:50.368Z,3.00
2022-09-24T00:33:53.073Z,3.03
2022-09-24T00:34:55.093Z,3.05
2022-09-24T00:36:02.316Z,3.55
2022-09-24T00:37:04.063Z,3.35
2022-09-24T00:38:06.544Z,3.30
2022-09-24T00:39:08.649Z,3.55
2022-09-24T00:40:10.909Z,3.15
2022-09-24T00:41:12.613Z,3.60
2022-09-24T00:42:14.282Z,3.65
2022-09-24T00:43:23.439Z,3.15
2022-09-24T00:44:40.977Z,3.42
2022-09-24T00:45:42.806Z,3.50
2022-09-24T00:46:44.881Z,3.35
2022-09-24T00:47:46.778Z,3.35
2022-09-24T00:48:50.663Z,3.40
2022-09-24T00:49:52.374Z,4.03
2022-09-24T00:50:55.537Z,3.50
2022-09-24T00:51:57.692Z,3.58
2022-09-24T00:53:03.992Z,3.22
2022-09-24T00:54:10.061Z,3.50
2022-09-24T00:55:14.204Z,3.60
2022-09-24T00:56:17.078Z,3.42
2022-09-24T00:57:18.910Z,3.58
2022-09-24T00:58:23.142Z,3.35
2022-09-24T00:59:25.763Z,3.08
2022-09-24T01:00:28.013Z,3.15
2022-09-24T01:01:30.397Z,3.33
2022-09-24T01:02:32.768Z,3.70
2022-09-24T01:03:41.157Z,3.28
2022-09-24T01:04:42.951Z,3.38
2022-09-24T01:05:45.093Z,3.63
2022-09-24T01:06:48.345Z,3.33
2022-09-24T01:07:50.093Z,3.85
2022-09-24T01:08:52.688Z,3.75
2022-09-24T01:09:54.396Z,3.55
2022-09-24T01:11:16.638Z,3.50
2022-09-24T01:12:47.126Z,3.80
2022-09-24T01:14:33.184Z,3.70
2022-09-24T01:15:41.203Z,3.38
2022-09-24T01:16:57.718Z,3.47
2022-09-24T01:18:11.706Z,4.43
2022-09-24T01:19:50.937Z,3.95
2022-09-24T01:21:01.316Z,3.80
2022-09-24T01:22:30.591Z,3.90
2022-09-24T01:23:51.071Z,3.53
2022-09-24T01:25:20.794Z,3.80
2022-09-24T01:26:48.574Z,3.75
2022-09-24T01:28:02.676Z,3.97
2022-09-24T01:29:21.190Z,3.97
2022-09-24T01:30:25.437Z,4.30
2022-09-24T01:31:41.779Z,3.85
2022-09-24T01:32:49.747Z,4.00
2022-09-24T01:33:54.836Z,4.15
2022-09-24T01:35:03.379Z,3.85
2022-09-24T01:36:08.606Z,3.35
2022-09-24T01:37:14.834Z,3.80
2022-09-24T01:38:25.391Z,4.25
2022-09-24T01:39:27.842Z,3.97
2022-09-24T01:40:30.954Z,4.03
2022-09-24T01:41:34.369Z,3.75
2022-09-24T01:42:38.416Z,3.92
2022-09-24T01:43:40.216Z,4.15
2022-09-24T01:44:44.559Z,3.72
2022-09-24T01:45:46.676Z,3.95
2022-09-24T01:46:49.982Z,3.63
2022-09-24T01:47:51.971Z,3.33
2022-09-24T01:48:53.628Z,3.80
2022-09-24T01:49:55.389Z,3.40
2022-09-24T01:51:09.253Z,4.07
2022-09-24T01:52:16.488Z,3.67
2022-09-24T01:53:25.601Z,3.42
2022-09-24T01:54:33.412Z,3.70
2022-09-24T01:55:39.530Z,3.50
2022-09-24T01:56:51.638Z,3.95
2022-09-24T01:58:03.291Z,3.67
2022-09-24T01:59:14.759Z,4.03
2022-09-24T02:00:21.463Z,3.97
2022-09-24T02:01:30.159Z,4.07
2022-09-24T02:02:45.447Z,3.75
2022-09-24T02:03:53.505Z,3.63
2022-09-24T02:05:07.101Z,3.60
2022-09-24T02:06:18.142Z,3.42
2022-09-24T02:07:30.634Z,3.60
2022-09-24T02:08:46.432Z,3.83
2022-09-24T02:09:49.279Z,4.15
2022-09-24T02:11:01.557Z,3.85
2022-09-24T02:12:28.290Z,3.40
2022-09-24T02:13:38.934Z,3.55
2022-09-24T02:14:46.237Z,4.00
2022-09-24T02:15:52.343Z,4.13
2022-09-24T02:16:54.438Z,3.83
2022-09-24T02:18:00.478Z,4.13
2022-09-24T02:19:11.581Z,4.10
2022-09-24T02:20:21.375Z,4.03
2022-09-24T02:21:24.692Z,4.10
2022-09-24T02:22:26.402Z,3.90
2022-09-24T02:23:29.679Z,4.47
2022-09-24T02:24:40.767Z,3.85
2022-09-24T02:25:50.765Z,3.95
2022-09-24T02:26:52.685Z,3.88
2022-09-24T02:27:54.401Z,3.83
2022-09-24T02:28:56.302Z,4.13
2022-09-24T02:30:00.070Z,3.70
2022-09-24T02:31:02.096Z,4.10
2022-09-24T02:32:07.968Z,4.35
2022-09-24T02:33:32.002Z,4.05
2022-09-24T02:34:41.636Z,4.05
2022-09-24T02:35:43.443Z,3.58
2022-09-24T02:36:45.446Z,3.70
2022-09-24T02:37:48.158Z,4.20
2022-09-24T02:38:49.830Z,3.78
2022-09-24T02:39:52.182Z,3.40
2022-09-24T02:40:54.287Z,3.42
2022-09-24T02:41:57.193Z,3.63
2022-09-24T02:42:58.853Z,3.33
2022-09-24T02:44:00.692Z,3.58
2022-09-24T02:45:04.823Z,3.35
2022-09-24T02:46:10.310Z,3.60
2022-09-24T02:47:12.061Z,3.40
2022-09-24T02:48:13.783Z,3.50
2022-09-24T02:49:15.678Z,3.35
2022-09-24T02:50:17.572Z,3.40
2022-09-24T02:51:19.469Z,3.33
2022-09-24T02:52:21.659Z,3.40
2022-09-24T02:53:23.589Z,3.30
2022-09-24T02:54:25.706Z,3.50
2022-09-24T02:55:27.402Z,3.60
2022-09-24T02:56:30.026Z,3.63
2022-09-24T02:57:31.688Z,3.78
2022-09-24T02:58:33.809Z,3.38
2022-09-24T02:59:36.181Z,3.15
2022-09-24T03:00:37.873Z,3.30
2022-09-24T03:01:39.818Z,3.00
2022-09-24T03:02:41.701Z,3.03
2022-09-24T03:03:43.710Z,2.90
2022-09-24T03:04:45.392Z,3.10
2022-09-24T03:05:47.250Z,3.10
2022-09-24T03:06:49.206Z,3.10
2022-09-24T03:07:50.869Z,3.50
2022-09-24T03:08:55.968Z,3.55
2022-09-24T03:09:57.908Z,3.15
2022-09-24T03:11:00.936Z,3.38
2022-09-24T03:12:02.733Z,3.70
2022-09-24T03:13:04.682Z,3.55
2022-09-24T03:14:06.615Z,3.47
2022-09-24T03:15:08.567Z,3.67
2022-09-24T03:16:10.277Z,3.30
2022-09-24T03:17:12.234Z,3.60
2022-09-24T03:18:15.028Z,3.95
2022-09-24T03:19:16.704Z,3.90
2022-09-24T03:20:18.432Z,3.72
2022-09-24T03:21:22.393Z,3.67
2022-09-24T03:22:24.091Z,4.03
2022-09-24T03:23:26.667Z,4.13
2022-09-24T03:24:28.331Z,3.80
2022-09-24T03:25:30.213Z,3.58
2022-09-24T03:26:31.998Z,4.18
2022-09-24T03:27:33.878Z,3.90
2022-09-24T03:28:36.204Z,4.43
2022-09-24T03:29:56.527Z,3.53
2022-09-24T03:31:01.434Z,3.85
2022-09-24T03:32:03.132Z,3.83
2022-09-24T03:33:04.840Z,3.63
2022-09-24T03:34:06.548Z,4.32
2022-09-24T03:35:08.866Z,3.80
2022-09-24T03:36:24.725Z,4.30
2022-09-24T03:37:26.451Z,3.95
2022-09-24T03:38:29.460Z,3.70
2022-09-24T03:39:31.217Z,3.58
2022-09-24T03:40:33.000Z,3.67
2022-09-24T03:41:34.896Z,3.72
2022-09-24T03:42:37.082Z,4.32
2022-09-24T03:43:39.743Z,4.10
2022-09-24T03:44:41.387Z,4.03
2022-09-24T03:45:43.089Z,3.58
2022-09-24T03:46:45.079Z,3.65
2022-09-24T03:47:46.772Z,3.88
2022-09-24T03:48:49.255Z,4.00
2022-09-24T03:49:50.901Z,4.18
2022-09-24T03:50:53.981Z,4.38
2022-09-24T03:51:55.681Z,3.78
2022-09-24T03:52:57.342Z,3.90
2022-09-24T03:53:59.020Z,4.00
2022-09-24T03:55:00.777Z,3.65
2022-09-24T03:56:02.669Z,4.03
2022-09-24T03:57:04.325Z,3.80
2022-09-24T03:58:06.026Z,3.85
2022-09-24T03:59:09.213Z,3.67
2022-09-24T04:00:11.658Z,4.10
2022-09-24T04:01:14.647Z,4.35
2022-09-24T04:02:16.292Z,4.07
2022-09-24T04:03:18.102Z,4.18
2022-09-24T04:04:19.801Z,3.88
2022-09-24T04:05:21.437Z,4.57
2022-09-24T04:06:25.892Z,4.57
2022-09-24T04:07:27.808Z,5.32
2022-09-24T04:08:29.750Z,4.53
2022-09-24T04:09:31.711Z,4.68
2022-09-24T04:10:33.512Z,4.28
2022-09-24T04:11:35.391Z,4.10
2022-09-24T04:12:37.175Z,4.10
2022-09-24T04:13:38.823Z,4.05
2022-09-24T04:14:40.486Z,4.00
2022-09-24T04:15:42.530Z,3.90
2022-09-24T04:16:45.446Z,3.97
2022-09-24T04:17:51.118Z,4.30
2022-09-24T04:18:53.479Z,4.25
2022-09-24T04:19:55.987Z,4.05
2022-09-24T04:20:59.973Z,5.10
2022-09-24T04:22:01.623Z,5.15
2022-09-24T04:23:04.027Z,4.43
2022-09-24T04:24:05.806Z,4.68
2022-09-24T04:25:11.427Z,4.82
2022-09-24T04:26:16.169Z,4.55
2022-09-24T04:27:17.854Z,4.93
2022-09-24T04:28:19.508Z,4.50
2022-09-24T04:29:21.155Z,4.53
2022-09-24T04:30:24.037Z,4.85
2022-09-24T04:31:27.466Z,4.45
2022-09-24T04:32:29.224Z,4.55
2022-09-24T04:33:30.910Z,4.90
2022-09-24T04:34:33.405Z,4.40
2022-09-24T04:35:36.784Z,5.10
2022-09-24T04:36:38.451Z,4.90
2022-09-24T04:37:40.440Z,5.35
2022-09-24T04:38:42.434Z,5.13
2022-09-24T04:39:44.088Z,5.00
2022-09-24T04:40:47.472Z,4.97
2022-09-24T04:41:49.224Z,4.80
2022-09-24T04:42:51.002Z,5.35
2022-09-24T04:43:52.652Z,5.57
2022-09-24T04:44:56.314Z,5.68
2022-09-24T04:45:58.944Z,5.50
2022-09-24T04:47:03.367Z,5.53
2022-09-24T04:48:05.731Z,5.47
2022-09-24T04:49:09.281Z,5.05
2022-09-24T04:50:11.773Z,4.63
2022-09-24T04:51:13.406Z,5.28
2022-09-24T04:52:15.767Z,5.13
2022-09-24T04:53:17.466Z,4.97
2022-09-24T04:54:19.137Z,4.53
2022-09-24T04:55:21.442Z,4.72
2022-09-24T04:56:23.118Z,4.82
2022-09-24T04:57:24.757Z,4.60
2022-09-24T04:58:26.714Z,4.63
2022-09-24T04:59:28.484Z,4.97
2022-09-24T05:00:33.590Z,4.78
2022-09-24T05:01:36.263Z,4.53
2022-09-24T05:02:38.181Z,4.28
2022-09-24T05:03:39.918Z,4.80
2022-09-24T05:04:41.570Z,4.43
2022-09-24T05:05:43.319Z,4.60
2022-09-24T05:06:44.987Z,5.20
2022-09-24T05:07:46.638Z,4.70
2022-09-24T05:08:48.301Z,5.22
2022-09-24T05:09:49.948Z,4.95
2022-09-24T05:10:54.274Z,4.70
2022-09-24T05:11:55.913Z,5.20
2022-09-24T05:12:57.873Z,4.55
2022-09-24T05:13:59.553Z,4.97
2022-09-24T05:15:01.259Z,4.20
2022-09-24T05:16:03.603Z,4.55
2022-09-24T05:17:05.392Z,4.93
2022-09-24T05:18:07.146Z,4.78
2022-09-24T05:19:08.847Z,4.05
2022-09-24T05:20:11.350Z,4.40
2022-09-24T05:21:12.998Z,4.40
2022-09-24T05:22:14.827Z,4.43
2022-09-24T05:23:16.517Z,4.97
2022-09-24T05:24:18.169Z,4.25
2022-09-24T05:25:22.227Z,3.83
2022-09-24T05:26:42.643Z,4.20
2022-09-24T05:27:45.897Z,4.22
2022-09-24T05:28:47.600Z,3.90
2022-09-24T05:29:49.418Z,3.75
2022-09-24T05:30:51.150Z,3.75
2022-09-24T05:31:53.530Z,3.92
2022-09-24T05:32:55.264Z,4.00
2022-09-24T05:33:57.613Z,3.97
2022-09-24T05:34:59.525Z,3.70
2022-09-24T05:36:01.400Z,3.92
2022-09-24T05:37:03.838Z,4.15
2022-09-24T05:38:05.693Z,4.07
2022-09-24T05:39:07.521Z,4.05
2022-09-24T05:40:28.917Z,4.07
2022-09-24T05:41:30.621Z,4.60
2022-09-24T05:42:32.267Z,4.25
2022-09-24T05:43:33.909Z,4.05
2022-09-24T05:44:35.633Z,4.50
2022-09-24T05:45:37.309Z,4.45
2022-09-24T05:46:39.011Z,8.55
2022-09-24T05:47:40.761Z,5.85
2022-09-24T05:48:42.445Z,4.28
2022-09-24T05:49:44.090Z,4.38
2022-09-24T05:50:45.769Z,4.63
2022-09-24T05:51:49.394Z,3.60
2022-09-24T05:52:51.077Z,3.65
2022-09-24T05:53:52.859Z,3.30
2022-09-24T05:54:54.639Z,3.15
2022-09-24T05:55:57.693Z,3.20
2022-09-24T05:56:59.840Z,3.13
2022-09-24T05:58:10.831Z,3.13
2022-09-24T06:00:14.348Z,2.65
2022-09-24T06:01:16.258Z,2.38
2022-09-24T06:02:17.967Z,2.88
2022-09-24T06:03:20.531Z,2.30
2022-09-24T06:04:22.263Z,2.30
2022-09-24T06:05:23.898Z,2.22
2022-09-24T06:06:26.572Z,2.17
2022-09-24T06:07:28.415Z,2.30
2022-09-24T06:08:31.906Z,2.03
2022-09-24T06:09:33.586Z,1.85
2022-09-24T06:10:37.076Z,2.05
2022-09-24T06:11:40.645Z,2.25
2022-09-24T06:12:43.203Z,2.25
2022-09-24T06:13:44.937Z,2.10
2022-09-24T06:14:46.647Z,2.30
2022-09-24T06:15:48.366Z,2.30
2022-09-24T06:16:50.074Z,2.00
2022-09-24T06:17:54.165Z,2.03
2022-09-24T06:18:56.185Z,2.28
2022-09-24T06:19:58.170Z,2.08
2022-09-24T06:21:07.794Z,2.00
2022-09-24T06:22:09.455Z,2.30
2022-09-24T06:23:11.246Z,2.13
2022-09-24T06:24:12.924Z,1.83
2022-09-24T06:25:14.971Z,2.05
2022-09-24T06:26:16.679Z,2.13
2022-09-24T06:27:18.310Z,1.98
2022-09-24T06:28:20.000Z,1.80
2022-09-24T06:29:21.640Z,2.30
2022-09-24T06:30:23.282Z,2.28
2022-09-24T06:31:25.006Z,1.90
2022-09-24T06:32:26.678Z,2.10
2022-09-24T06:33:28.806Z,1.95
2022-09-24T06:34:30.828Z,2.10
2022-09-24T06:35:40.122Z,2.03
2022-09-24T06:36:42.311Z,2.20
2022-09-24T06:37:44.059Z,2.45
2022-09-24T06:38:45.758Z,2.05
2022-09-24T06:39:47.391Z,2.33
2022-09-24T06:40:49.164Z,2.08
2022-09-24T06:41:51.624Z,2.35
2022-09-24T06:42:55.517Z,1.95
2022-09-24T06:43:57.237Z,1.70
2022-09-24T06:44:58.986Z,2.10
2022-09-24T06:46:01.869Z,1.95
2022-09-24T06:47:03.668Z,3.33
2022-09-24T06:48:06.081Z,2.92
2022-09-24T06:49:07.892Z,3.55
2022-09-24T06:50:09.833Z,5.45
2022-09-24T06:51:11.485Z,4.70
2022-09-24T06:52:13.266Z,6.43
2022-09-24T06:53:15.040Z,4.93
2022-09-24T06:54:16.751Z,3.75
2022-09-24T06:55:19.143Z,3.47
2022-09-24T06:56:20.841Z,2.35
2022-09-24T06:57:28.025Z,1.50
2022-09-24T06:58:30.530Z,1.80
2022-09-24T06:59:32.226Z,1.73
2022-09-24T07:00:35.229Z,2.20
2022-09-24T07:01:37.129Z,1.88
2022-09-24T07:02:39.076Z,1.92
2022-09-24T07:03:40.901Z,1.83
2022-09-24T07:04:42.623Z,1.50
2022-09-24T07:05:44.306Z,1.85
2022-09-24T07:07:04.820Z,1.63
2022-09-24T07:08:06.494Z,2.25
2022-09-24T07:09:08.271Z,2.75
2022-09-24T07:10:10.660Z,2.40
2022-09-24T07:11:13.671Z,2.17
2022-09-24T07:12:15.303Z,1.70
2022-09-24T07:13:17.324Z,1.83
2022-09-24T07:14:18.993Z,1.73
2022-09-24T07:15:20.753Z,1.90
2022-09-24T07:16:22.469Z,1.80
2022-09-24T07:17:33.538Z,2.10
2022-09-24T07:18:35.660Z,2.90
2022-09-24T07:19:38.429Z,1.63
2022-09-24T07:20:40.693Z,1.60
2022-09-24T07:21:42.315Z,1.70
2022-09-24T07:22:43.960Z,1.92
2022-09-24T07:23:45.964Z,1.90
2022-09-24T07:24:48.201Z,1.90
2022-09-24T07:25:51.871Z,2.05
2022-09-24T07:26:53.504Z,1.55
2022-09-24T07:27:55.197Z,1.95
2022-09-24T07:28:56.903Z,1.95
2022-09-24T07:29:58.590Z,1.83
2022-09-24T07:31:00.652Z,2.00
2022-09-24T07:32:03.541Z,2.00
2022-09-24T07:33:07.510Z,2.20
2022-09-24T07:34:09.414Z,1.60
2022-09-24T07:35:11.262Z,1.90
2022-09-24T07:36:12.948Z,1.75
2022-09-24T07:37:14.758Z,2.00
2022-09-24T07:38:16.918Z,2.05
2022-09-24T07:39:20.297Z,2.03
2022-09-24T07:40:23.850Z,2.10
2022-09-24T07:41:25.999Z,2.10
2022-09-24T07:42:29.202Z,2.40
2022-09-24T07:43:33.332Z,2.20
2022-09-24T07:44:36.566Z,2.22
2022-09-24T07:45:38.857Z,1.60
2022-09-24T07:46:40.547Z,2.00
2022-09-24T07:47:42.218Z,1.90
2022-09-24T07:48:43.869Z,1.92
2022-09-24T07:49:45.507Z,1.70
2022-09-24T07:50:47.445Z,2.05
2022-09-24T07:51:49.660Z,1.70
2022-09-24T07:52:51.702Z,1.83
2022-09-24T07:53:53.844Z,1.88
2022-09-24T07:54:55.963Z,1.88
2022-09-24T07:56:00.791Z,1.90
2022-09-24T07:57:02.952Z,2.00
2022-09-24T07:58:04.634Z,1.90
2022-09-24T07:59:07.342Z,2.20
2022-09-24T08:00:09.678Z,1.73
2022-09-24T08:01:11.402Z,1.80
2022-09-24T08:02:18.996Z,1.80
2022-09-24T08:03:20.869Z,1.70
2022-09-24T08:04:22.643Z,1.73
2022-09-24T08:05:24.354Z,1.40
2022-09-24T08:06:26.299Z,2.28
2022-09-24T08:07:28.013Z,1.92
2022-09-24T08:08:29.780Z,1.90
2022-09-24T08:09:33.089Z,1.80
2022-09-24T08:10:34.751Z,1.60
2022-09-24T08:11:36.382Z,1.50
2022-09-24T08:12:38.138Z,1.50
2022-09-24T08:13:40.273Z,1.50
2022-09-24T08:14:43.421Z,1.50
2022-09-24T08:15:45.267Z,1.50
2022-09-24T08:16:46.924Z,1.35
2022-09-24T08:17:48.597Z,1.30
2022-09-24T08:18:54.073Z,1.20
2022-09-24T08:19:57.143Z,1.40
2022-09-24T08:21:00.185Z,1.20
2022-09-24T08:22:02.406Z,1.50
2022-09-24T08:23:06.183Z,1.50
2022-09-24T08:24:07.965Z,1.42
2022-09-24T08:25:09.734Z,1.60
2022-09-24T08:26:12.882Z,1.40
2022-09-24T08:27:17.374Z,1.73
2022-09-24T08:28:19.918Z,1.55
2022-09-24T08:29:21.549Z,1.50
2022-09-24T08:30:23.219Z,1.63
2022-09-24T08:31:24.968Z,1.50
2022-09-24T08:32:27.363Z,1.60
2022-09-24T08:33:30.337Z,1.70
2022-09-24T08:34:38.390Z,1.73
2022-09-24T08:35:40.399Z,1.35
2022-09-24T08:36:43.205Z,1.58
2022-09-24T08:37:45.009Z,1.38
2022-09-24T08:38:46.698Z,1.60
2022-09-24T08:39:48.720Z,1.45
2022-09-24T08:41:02.724Z,1.40
2022-09-24T08:42:06.837Z,1.23
2022-09-24T08:43:26.518Z,1.40
2022-09-24T08:44:56.904Z,1.80
2022-09-24T08:46:22.852Z,1.40
2022-09-24T08:47:43.478Z,1.20
2022-09-24T08:48:51.612Z,1.20
2022-09-24T08:50:03.952Z,1.40
2022-09-24T08:51:12.016Z,1.30
2022-09-24T08:52:35.511Z,1.35
2022-09-24T08:53:46.839Z,1.33
2022-09-24T08:54:51.030Z,1.30
2022-09-24T08:56:04.579Z,1.50
2022-09-24T08:57:14.063Z,1.33
2022-09-24T08:59:06.188Z,1.50
2022-09-24T09:00:15.125Z,1.10
2022-09-24T09:01:22.773Z,1.40
2022-09-24T09:02:48.353Z,1.27
2022-09-24T09:03:56.286Z,0.95
2022-09-24T09:05:00.708Z,1.17
2022-09-24T09:06:10.500Z,1.10
2022-09-24T09:07:23.563Z,1.30
2022-09-24T09:09:05.295Z,1.30
2022-09-24T09:10:11.223Z,1.50
2022-09-24T09:11:16.571Z,1.45
2022-09-24T09:12:24.175Z,1.30
2022-09-24T09:13:32.588Z,1.10
2022-09-24T09:14:49.202Z,1.27
2022-09-24T09:16:01.237Z,1.40
2022-09-24T09:17:13.129Z,1.27
2022-09-24T09:18:23.615Z,1.20
2022-09-24T09:19:34.777Z,1.38
2022-09-24T09:20:41.876Z,1.45
2022-09-24T09:21:52.700Z,1.30
2022-09-24T09:23:59.769Z,1.40
2022-09-24T09:25:18.870Z,1.40
2022-09-24T09:26:20.779Z,1.30
2022-09-24T09:27:22.492Z,1.38
2022-09-24T09:28:26.558Z,1.10
2022-09-24T09:29:28.349Z,1.30
2022-09-24T09:30:55.773Z,1.35
2022-09-24T09:32:12.471Z,1.27
2022-09-24T09:33:29.262Z,1.10
2022-09-24T09:34:49.060Z,1.27
2022-09-24T09:36:37.476Z,1.20
2022-09-24T09:37:47.634Z,1.13
2022-09-24T09:39:07.712Z,1.10
2022-09-24T09:40:16.588Z,1.10
2022-09-24T09:41:51.990Z,1.35
2022-09-24T09:43:03.061Z,1.33
2022-09-24T09:44:37.536Z,1.02
2022-09-24T09:45:42.026Z,1.38
2022-09-24T09:46:53.326Z,1.67
2022-09-24T09:47:57.434Z,1.30
2022-09-24T09:49:05.621Z,1.45
2022-09-24T09:50:26.280Z,1.50
2022-09-24T09:51:37.559Z,1.58
2022-09-24T09:52:40.160Z,1.10
2022-09-24T09:53:41.975Z,1.50
2022-09-24T09:54:44.375Z,1.38
2022-09-24T09:55:53.637Z,1.33
2022-09-24T09:56:56.374Z,1.10
2022-09-24T09:58:16.957Z,1.35
2022-09-24T09:59:27.262Z,1.20
2022-09-24T10:00:35.176Z,1.23
2022-09-24T10:01:41.000Z,1.30
2022-09-24T10:02:43.989Z,1.20
2022-09-24T10:03:49.224Z,1.40
2022-09-24T10:05:23.559Z,1.40
2022-09-24T10:06:34.645Z,1.30
2022-09-24T10:07:45.230Z,1.38
2022-09-24T10:08:46.908Z,1.30
2022-09-24T10:10:00.893Z,1.30
2022-09-24T10:11:03.592Z,1.20
2022-09-24T10:12:22.687Z,1.20
2022-09-24T10:13:25.061Z,1.33
2022-09-24T10:14:26.723Z,1.20
2022-09-24T10:15:28.584Z,1.40
2022-09-24T10:16:30.470Z,1.20
2022-09-24T10:17:37.318Z,1.30
2022-09-24T10:18:47.361Z,1.15
2022-09-24T10:19:50.936Z,1.55
2022-09-24T10:20:53.184Z,1.95
2022-09-24T10:21:57.603Z,1.15
2022-09-24T10:23:16.887Z,1.25
2022-09-24T10:24:24.270Z,1.30
2022-09-24T10:25:28.708Z,1.30
2022-09-24T10:26:44.570Z,1.20
2022-09-24T10:27:47.129Z,1.13
2022-09-24T10:29:10.267Z,1.48
2022-09-24T10:30:35.535Z,1.35
2022-09-24T10:31:42.296Z,1.20
2022-09-24T10:32:44.515Z,1.40
2022-09-24T10:33:49.499Z,1.52
2022-09-24T10:35:02.073Z,1.10
2022-09-24T10:36:07.845Z,1.15
2022-09-24T10:37:19.029Z,1.33
2022-09-24T10:38:25.167Z,1.20
2022-09-24T10:39:26.883Z,1.40
2022-09-24T10:40:39.358Z,1.42
2022-09-24T10:41:49.198Z,1.52
2022-09-24T10:42:59.378Z,1.40
2022-09-24T10:44:06.173Z,1.35
2022-09-24T10:45:14.245Z,1.30
2022-09-24T10:46:21.856Z,1.50
2022-09-24T10:47:53.622Z,1.40
2022-09-24T10:49:27.476Z,1.35
2022-09-24T10:50:47.004Z,1.55
2022-09-24T10:52:08.795Z,1.25
2022-09-24T10:53:19.394Z,1.30
2022-09-24T10:54:48.220Z,1.20
2022-09-24T10:56:09.179Z,1.50
2022-09-24T10:58:37.432Z,1.40
2022-09-24T11:00:01.176Z,1.60
2022-09-24T11:01:19.407Z,1.35
2022-09-24T11:02:31.500Z,1.30
2022-09-24T11:03:58.374Z,1.30
2022-09-24T11:05:11.137Z,1.70
2022-09-24T11:06:28.591Z,1.40
2022-09-24T11:07:58.015Z,1.30
2022-09-24T11:08:59.699Z,1.17
2022-09-24T11:10:15.138Z,1.45
2022-09-24T11:11:19.690Z,1.63
2022-09-24T11:12:47.472Z,1.58
2022-09-24T11:13:57.960Z,1.30
2022-09-24T11:15:20.413Z,1.60
2022-09-24T11:16:43.502Z,1.55
2022-09-24T11:18:05.905Z,1.30
2022-09-24T11:19:33.243Z,1.33
2022-09-24T11:20:39.818Z,1.45
2022-09-24T11:22:00.315Z,1.50
2022-09-24T11:23:16.702Z,1.42
2022-09-24T11:24:33.494Z,1.35
2022-09-24T11:25:38.313Z,1.58
2022-09-24T11:26:49.237Z,1.30
2022-09-24T11:29:49.212Z,1.42
2022-09-24T11:30:50.893Z,1.50
2022-09-24T11:32:07.612Z,1.65
2022-09-24T11:33:38.981Z,1.40
2022-09-24T11:34:47.242Z,1.50
2022-09-24T11:36:30.177Z,1.48
2022-09-24T11:38:20.142Z,1.35
2022-09-24T11:39:39.815Z,1.40
2022-09-24T11:40:55.479Z,1.60
2022-09-24T11:42:52.930Z,1.50
2022-09-24T11:44:27.192Z,1.40
2022-09-24T11:45:59.923Z,1.40
2022-09-24T11:47:07.578Z,1.40
2022-09-24T11:48:27.812Z,1.50
2022-09-24T11:49:47.399Z,1.60
2022-09-24T11:51:08.046Z,3.28
2022-09-24T11:52:35.249Z,5.75
2022-09-24T11:53:52.116Z,4.75
2022-09-24T11:55:21.355Z,7.50
2022-09-24T11:56:34.048Z,5.15
2022-09-24T11:57:45.169Z,4.80
2022-09-24T11:58:49.576Z,4.20
2022-09-24T12:00:01.753Z,1.90
2022-09-24T12:01:12.982Z,1.90
2022-09-24T12:02:25.236Z,1.70
2022-09-24T12:03:40.398Z,1.75
2022-09-24T12:04:51.158Z,1.85
2022-09-24T12:06:00.813Z,1.77
2022-09-24T12:07:12.951Z,1.60
2022-09-24T12:08:27.879Z,1.55
2022-09-24T12:09:38.809Z,1.95
2022-09-24T12:12:23.597Z,1.80
2022-09-24T12:13:31.048Z,1.77
2022-09-24T12:14:56.391Z,1.50
2022-09-24T12:16:03.220Z,1.60
2022-09-24T12:17:10.406Z,1.70
2022-09-24T12:18:21.489Z,1.38
2022-09-24T12:19:26.855Z,1.58
2022-09-24T12:20:30.468Z,1.40
2022-09-24T12:21:41.339Z,1.60
2022-09-24T12:22:44.720Z,1.83
2022-09-24T12:23:49.399Z,1.77
2022-09-24T12:25:00.328Z,1.63
2022-09-24T12:26:05.942Z,1.52
2022-09-24T12:27:13.241Z,6.80
2022-09-24T12:28:46.925Z,5.25
2022-09-24T12:30:39.481Z,1.85
2022-09-24T12:32:19.378Z,7.70
2022-09-24T12:33:48.381Z,3.65
2022-09-24T12:35:12.797Z,3.17
2022-09-24T12:37:02.043Z,2.15
2022-09-24T12:38:14.040Z,1.52
2022-09-24T12:39:20.045Z,1.45
2022-09-24T12:40:36.839Z,1.65
2022-09-24T12:41:43.865Z,1.35
2022-09-24T12:42:50.894Z,1.40
2022-09-24T12:44:10.940Z,1.75
2022-09-24T12:45:23.555Z,1.50
2022-09-24T12:46:45.890Z,1.60
2022-09-24T12:47:52.380Z,1.52
2022-09-24T12:48:54.754Z,1.92
2022-09-24T12:50:00.356Z,1.80
2022-09-24T12:51:05.266Z,1.77
2022-09-24T12:52:18.331Z,1.70
2022-09-24T12:53:24.942Z,1.80
2022-09-24T12:54:38.238Z,1.75
2022-09-24T12:55:45.466Z,1.52
2022-09-24T12:56:47.340Z,1.52
2022-09-24T12:58:06.145Z,1.67
2022-09-24T12:59:24.757Z,1.80
2022-09-24T13:00:32.514Z,2.35
2022-09-24T13:01:34.611Z,1.73
2022-09-24T13:02:48.656Z,2.05
2022-09-24T13:04:04.526Z,2.08
2022-09-24T13:05:17.568Z,1.60
2022-09-24T13:06:35.236Z,1.70
2022-09-24T13:07:40.864Z,1.60
2022-09-24T13:08:43.798Z,1.77
2022-09-24T13:09:45.469Z,1.70
2022-09-24T13:11:00.763Z,1.85
2022-09-24T13:12:18.464Z,1.65
2022-09-24T13:13:26.793Z,1.65
2022-09-24T13:14:34.864Z,1.50
2022-09-24T13:15:40.212Z,1.65
2022-09-24T13:16:46.528Z,1.85
2022-09-24T13:17:48.271Z,1.77
2022-09-24T13:18:55.706Z,1.52
2022-09-24T13:20:00.265Z,1.88
2022-09-24T13:21:08.323Z,1.77
2022-09-24T13:22:30.005Z,1.40
2022-09-24T13:23:33.839Z,1.70
2022-09-24T13:24:53.691Z,1.60
2022-09-24T13:26:08.326Z,1.60
2022-09-24T13:27:22.024Z,1.60
2022-09-24T13:28:37.401Z,1.50
2022-09-24T13:29:40.836Z,1.65
2022-09-24T13:30:44.450Z,1.60
2022-09-24T13:32:03.018Z,1.40
2022-09-24T13:33:29.677Z,1.75
2022-09-24T13:34:32.570Z,1.83
2022-09-24T13:35:42.228Z,1.48
2022-09-24T13:37:10.795Z,1.50
2022-09-24T13:38:24.598Z,1.90
2022-09-24T13:39:44.498Z,1.58
2022-09-24T13:40:56.926Z,1.65
2022-09-24T13:42:21.477Z,1.35
2022-09-24T13:43:52.697Z,1.60
2022-09-24T13:44:57.331Z,1.73
2022-09-24T13:45:59.480Z,1.50
2022-09-24T13:47:24.520Z,1.65
2022-09-24T13:48:42.311Z,1.60
2022-09-24T13:49:51.755Z,1.70
2022-09-24T13:50:54.290Z,1.52
2022-09-24T13:52:15.462Z,1.80
2022-09-24T13:53:30.460Z,1.60
2022-09-24T13:54:36.976Z,1.60
2022-09-24T13:55:44.346Z,1.58
2022-09-24T13:57:11.640Z,1.52
2022-09-24T13:58:30.697Z,1.63
2022-09-24T13:59:32.427Z,2.10
2022-09-24T14:00:42.374Z,1.90
2022-09-24T14:01:44.734Z,1.70
2022-09-24T14:03:24.207Z,1.80
2022-09-24T14:04:26.257Z,2.00
2022-09-24T14:05:29.300Z,1.83
2022-09-24T14:06:38.281Z,1.73
2022-09-24T14:07:40.729Z,1.80
2022-09-24T14:08:47.031Z,1.63
2022-09-24T14:09:49.137Z,1.90
2022-09-24T14:10:51.585Z,1.58
2022-09-24T14:11:56.340Z,1.83
2022-09-24T14:13:03.279Z,1.70
2022-09-24T14:14:11.340Z,1.73
2022-09-24T14:15:17.610Z,1.58
2022-09-24T14:16:24.536Z,1.98
2022-09-24T14:17:26.690Z,1.67
2022-09-24T14:18:29.207Z,1.77
2022-09-24T14:19:34.237Z,1.80
2022-09-24T14:20:36.464Z,1.83
2022-09-24T14:21:44.355Z,1.95
2022-09-24T14:22:47.120Z,1.95
2022-09-24T14:23:56.106Z,2.20
2022-09-24T14:25:04.885Z,1.80
2022-09-24T14:26:10.784Z,1.92
2022-09-24T14:27:17.730Z,1.45
2022-09-24T14:28:20.427Z,1.80
2022-09-24T14:29:29.646Z,1.92
2022-09-24T14:30:33.725Z,1.85
2022-09-24T14:31:45.297Z,1.63
2022-09-24T14:32:56.429Z,1.85
2022-09-24T14:34:03.597Z,1.80
2022-09-24T14:35:12.528Z,1.95
2022-09-24T14:36:15.200Z,1.67
2022-09-24T14:37:34.476Z,1.95
2022-09-24T14:38:56.544Z,1.85
2022-09-24T14:40:05.216Z,1.90
2022-09-24T14:41:15.965Z,1.83
2022-09-24T14:42:44.030Z,2.00
2022-09-24T14:43:57.854Z,1.80
2022-09-24T14:45:04.433Z,1.80
2022-09-24T14:46:30.010Z,1.85
2022-09-24T14:47:37.002Z,1.80
2022-09-24T14:48:39.845Z,1.88
2022-09-24T14:49:45.491Z,1.90
2022-09-24T14:50:47.741Z,1.83
2022-09-24T14:52:03.887Z,1.70
2022-09-24T14:53:36.315Z,1.80
2022-09-24T14:54:40.605Z,1.83
2022-09-24T14:55:43.458Z,1.75
2022-09-24T14:56:45.482Z,1.92
2022-09-24T14:57:50.929Z,1.90
2022-09-24T14:58:55.781Z,1.60
2022-09-24T14:59:57.451Z,1.92
2022-09-24T15:01:05.604Z,2.00
2022-09-24T15:02:33.249Z,2.10
2022-09-24T15:03:39.063Z,1.85
2022-09-24T15:04:40.812Z,1.90